Accident
Last updated: 22 October 2014
Statuts:Préliminaire
Date:mercredi 25 août 2010
Heure:ca 17:40 UTC
Type/Sous-type:Silhouette image of generic E145 model; specific model in this crash may look slightly different
Embraer EMB-145LU (ERJ-145LU)
Compagnie:Passaredo Linhas Aéreas
Immatriculation: PR-PSJ
Numéro de série: 145351
Année de Fabrication: 2000
Moteurs: 2 Allison AE3007A1
Equipage:victimes: 0 / à bord: 3
Passagers:victimes: 0 / à bord: 24
Total:victimes: 0 / à bord: 27
Dégats de l'appareil: Perte Totale
Conséquences: Written off (damaged beyond repair)
Lieu de l'accident:Vitória da Conquista Airport, BA (VDC) (   Brésil) show on map
Phase de vol: A l'atterrissage (LDG)
Nature:Transport de Passagers Nat.
Aéroport de départ:São Paulo-Guarulhos International Airport, SP (GRU/SBGR), Brésil
Aéroport de destination:Vitória da Conquista Airport, BA (VDC/SBQV), Brésil
Détails:
An Embraer ERJ145 sustained substantial damage in a runway excursion accident at Vitória da Conquista Airport, BA (VDC).
Two people were injured.
Weather reported at the time of the crash was:
SBQV 251700Z 09011KT 9999 FEW010 BKN015 23/18 Q1022=
SBQV 251800Z 08015KT 9999 SCT015 22/17 Q1021=


Sources:
» Avião faz pouso de barriga na Bahia (Midiacon, 25-8-2010)


Photos

photo of Embraer ERJ-145LU HB-JAI
HB-JAI was sold to Finncomm (OH-EBE) and moved to Brasil as PR-PSJ in June 2010
Add your photo of this accident or aircraft
 

Plan
Ce plan montre l'aéroport de départ ainsi que la supposé destination du vol. La ligne fixe reliant les deux aéroports n'est pas le plan de vol exact.
La distance entre São Paulo-Guarulhos International Airport, SP et Vitória da Conquista Airport, BA est de 1116 km (697 miles).

Les informations ci-dessus ne représentent pas l'opinion de la 'Flight Safety Foundation' ou de 'Aviation Safety Network' sur les causes de l'accident. Ces informations prélimimaires sont basées sur les faits tels qui sont connus à ce jour.
languages: English Français Nederlands Deutsch Espanol

Share
Share